sensor_id;sensor_type;location;lat;lon;timestamp;P1;durP1;ratioP1;P2;durP2;ratioP2
11100;SDS011;5604;50.722;7.078;2022-10-24T00:01:46;739.00;;;683.80;;
11100;SDS011;5604;50.722;7.078;2022-10-24T00:04:14;708.80;;;657.60;;
11100;SDS011;5604;50.722;7.078;2022-10-24T00:06:42;718.50;;;665.87;;
11100;SDS011;5604;50.722;7.078;2022-10-24T00:09:10;753.60;;;697.90;;
11100;SDS011;5604;50.722;7.078;2022-10-24T00:11:40;720.47;;;669.37;;
11100;SDS011;5604;50.722;7.078;2022-10-24T00:14:08;723.33;;;670.20;;
11100;SDS011;5604;50.722;7.078;2022-10-24T00:16:36;708.90;;;657.97;;
11100;SDS011;5604;50.722;7.078;2022-10-24T00:19:04;719.50;;;667.40;;
11100;SDS011;5604;50.722;7.078;2022-10-24T00:21:32;677.57;;;630.33;;
11100;SDS011;5604;50.722;7.078;2022-10-24T00:24:00;736.20;;;684.00;;
11100;SDS011;5604;50.722;7.078;2022-10-24T00:26:28;740.33;;;685.40;;
11100;SDS011;5604;50.722;7.078;2022-10-24T00:28:58;723.00;;;668.60;;
11100;SDS011;5604;50.722;7.078;2022-10-24T00:31:31;709.50;;;658.87;;
11100;SDS011;5604;50.722;7.078;2022-10-24T00:33:59;674.37;;;629.20;;
11100;SDS011;5604;50.722;7.078;2022-10-24T00:36:27;681.93;;;633.80;;
11100;SDS011;5604;50.722;7.078;2022-10-24T00:38:55;694.27;;;644.10;;
11100;SDS011;5604;50.722;7.078;2022-10-24T00:41:24;712.23;;;660.43;;
11100;SDS011;5604;50.722;7.078;2022-10-24T00:46:55;729.00;;;676.23;;
11100;SDS011;5604;50.722;7.078;2022-10-24T00:49:27;725.93;;;672.37;;
11100;SDS011;5604;50.722;7.078;2022-10-24T00:51:58;675.13;;;627.00;;
11100;SDS011;5604;50.722;7.078;2022-10-24T00:54:28;674.93;;;627.17;;
11100;SDS011;5604;50.722;7.078;2022-10-24T00:56:59;676.03;;;628.23;;
11100;SDS011;5604;50.722;7.078;2022-10-24T00:59:31;649.87;;;604.40;;
11100;SDS011;5604;50.722;7.078;2022-10-24T01:02:01;666.70;;;619.87;;
11100;SDS011;5604;50.722;7.078;2022-10-24T01:04:29;687.97;;;640.67;;
11100;SDS011;5604;50.722;7.078;2022-10-24T01:07:00;662.73;;;617.63;;
11100;SDS011;5604;50.722;7.078;2022-10-24T01:09:38;696.07;;;646.80;;
11100;SDS011;5604;50.722;7.078;2022-10-24T01:12:18;727.87;;;675.07;;
11100;SDS011;5604;50.722;7.078;2022-10-24T01:14:55;679.10;;;633.03;;
11100;SDS011;5604;50.722;7.078;2022-10-24T01:17:32;702.90;;;652.70;;
11100;SDS011;5604;50.722;7.078;2022-10-24T01:22:58;700.00;;;649.07;;
11100;SDS011;5604;50.722;7.078;2022-10-24T01:25:32;659.70;;;616.43;;
11100;SDS011;5604;50.722;7.078;2022-10-24T01:28:08;673.00;;;625.87;;
11100;SDS011;5604;50.722;7.078;2022-10-24T01:30:41;639.03;;;595.07;;
11100;SDS011;5604;50.722;7.078;2022-10-24T01:33:13;608.13;;;569.17;;
11100;SDS011;5604;50.722;7.078;2022-10-24T01:35:46;624.63;;;581.47;;
11100;SDS011;5604;50.722;7.078;2022-10-24T01:38:18;634.50;;;592.30;;
11100;SDS011;5604;50.722;7.078;2022-10-24T01:40:51;590.87;;;552.53;;
11100;SDS011;5604;50.722;7.078;2022-10-24T01:43:22;568.43;;;533.13;;
11100;SDS011;5604;50.722;7.078;2022-10-24T01:45:55;611.93;;;573.50;;
11100;SDS011;5604;50.722;7.078;2022-10-24T01:48:26;558.70;;;523.90;;
11100;SDS011;5604;50.722;7.078;2022-10-24T01:50:55;590.57;;;554.07;;
11100;SDS011;5604;50.722;7.078;2022-10-24T01:53:23;600.90;;;562.13;;
11100;SDS011;5604;50.722;7.078;2022-10-24T01:55:54;594.53;;;556.13;;
11100;SDS011;5604;50.722;7.078;2022-10-24T01:58:23;519.53;;;490.00;;
11100;SDS011;5604;50.722;7.078;2022-10-24T02:00:52;584.37;;;547.43;;
11100;SDS011;5604;50.722;7.078;2022-10-24T02:03:26;576.47;;;540.27;;
11100;SDS011;5604;50.722;7.078;2022-10-24T02:06:00;592.93;;;554.50;;
11100;SDS011;5604;50.722;7.078;2022-10-24T02:08:31;575.17;;;539.10;;
11100;SDS011;5604;50.722;7.078;2022-10-24T02:11:01;586.17;;;549.37;;
11100;SDS011;5604;50.722;7.078;2022-10-24T02:13:33;613.43;;;574.00;;
11100;SDS011;5604;50.722;7.078;2022-10-24T02:16:09;581.63;;;544.50;;
11100;SDS011;5604;50.722;7.078;2022-10-24T02:18:37;600.87;;;563.07;;
11100;SDS011;5604;50.722;7.078;2022-10-24T02:21:08;620.17;;;578.43;;
11100;SDS011;5604;50.722;7.078;2022-10-24T02:23:44;582.37;;;544.30;;
11100;SDS011;5604;50.722;7.078;2022-10-24T02:26:17;587.80;;;549.97;;
11100;SDS011;5604;50.722;7.078;2022-10-24T02:28:53;588.70;;;549.43;;
11100;SDS011;5604;50.722;7.078;2022-10-24T02:31:26;533.37;;;501.83;;
11100;SDS011;5604;50.722;7.078;2022-10-24T02:33:59;605.97;;;566.83;;
11100;SDS011;5604;50.722;7.078;2022-10-24T02:36:27;561.50;;;527.03;;
11100;SDS011;5604;50.722;7.078;2022-10-24T02:38:57;552.33;;;517.13;;
11100;SDS011;5604;50.722;7.078;2022-10-24T02:41:26;527.83;;;496.93;;
11100;SDS011;5604;50.722;7.078;2022-10-24T02:43:56;567.73;;;532.13;;
11100;SDS011;5604;50.722;7.078;2022-10-24T02:46:26;559.70;;;526.30;;
11100;SDS011;5604;50.722;7.078;2022-10-24T02:48:56;568.73;;;532.97;;
11100;SDS011;5604;50.722;7.078;2022-10-24T02:51:26;547.73;;;515.67;;
11100;SDS011;5604;50.722;7.078;2022-10-24T02:53:56;516.33;;;486.53;;
11100;SDS011;5604;50.722;7.078;2022-10-24T02:56:26;552.87;;;519.77;;
11100;SDS011;5604;50.722;7.078;2022-10-24T02:58:54;514.70;;;485.00;;
11100;SDS011;5604;50.722;7.078;2022-10-24T03:01:22;542.10;;;509.77;;
11100;SDS011;5604;50.722;7.078;2022-10-24T03:03:52;517.23;;;489.23;;
11100;SDS011;5604;50.722;7.078;2022-10-24T03:06:20;523.23;;;493.27;;
11100;SDS011;5604;50.722;7.078;2022-10-24T03:08:48;564.47;;;531.57;;
11100;SDS011;5604;50.722;7.078;2022-10-24T03:11:16;514.93;;;486.27;;
11100;SDS011;5604;50.722;7.078;2022-10-24T03:13:44;547.70;;;515.03;;
11100;SDS011;5604;50.722;7.078;2022-10-24T03:16:13;547.60;;;515.67;;
11100;SDS011;5604;50.722;7.078;2022-10-24T03:18:41;535.50;;;505.50;;
11100;SDS011;5604;50.722;7.078;2022-10-24T03:21:10;541.43;;;510.53;;
11100;SDS011;5604;50.722;7.078;2022-10-24T03:23:38;556.23;;;523.13;;
11100;SDS011;5604;50.722;7.078;2022-10-24T03:26:06;520.33;;;490.47;;
11100;SDS011;5604;50.722;7.078;2022-10-24T03:28:34;578.23;;;543.63;;
11100;SDS011;5604;50.722;7.078;2022-10-24T03:31:02;545.70;;;514.43;;
11100;SDS011;5604;50.722;7.078;2022-10-24T03:33:30;581.10;;;545.77;;
11100;SDS011;5604;50.722;7.078;2022-10-24T03:35:59;543.60;;;513.13;;
11100;SDS011;5604;50.722;7.078;2022-10-24T03:38:28;530.87;;;501.77;;
11100;SDS011;5604;50.722;7.078;2022-10-24T03:40:56;525.07;;;495.73;;
11100;SDS011;5604;50.722;7.078;2022-10-24T03:43:24;553.17;;;521.00;;
11100;SDS011;5604;50.722;7.078;2022-10-24T03:45:53;527.83;;;497.97;;
11100;SDS011;5604;50.722;7.078;2022-10-24T03:48:21;553.63;;;521.40;;
11100;SDS011;5604;50.722;7.078;2022-10-24T03:50:49;535.80;;;504.30;;
11100;SDS011;5604;50.722;7.078;2022-10-24T03:53:17;557.00;;;523.83;;
11100;SDS011;5604;50.722;7.078;2022-10-24T03:55:46;547.03;;;515.87;;
11100;SDS011;5604;50.722;7.078;2022-10-24T03:58:14;540.87;;;509.57;;
11100;SDS011;5604;50.722;7.078;2022-10-24T04:00:43;550.13;;;518.07;;
11100;SDS011;5604;50.722;7.078;2022-10-24T04:03:11;600.63;;;564.90;;
11100;SDS011;5604;50.722;7.078;2022-10-24T04:05:39;580.30;;;545.70;;
11100;SDS011;5604;50.722;7.078;2022-10-24T04:08:07;555.67;;;522.57;;
11100;SDS011;5604;50.722;7.078;2022-10-24T04:10:35;597.77;;;561.13;;
11100;SDS011;5604;50.722;7.078;2022-10-24T04:13:04;593.73;;;557.00;;
11100;SDS011;5604;50.722;7.078;2022-10-24T04:15:32;579.67;;;544.33;;
11100;SDS011;5604;50.722;7.078;2022-10-24T04:18:00;602.33;;;563.43;;
11100;SDS011;5604;50.722;7.078;2022-10-24T04:20:28;636.00;;;594.97;;
11100;SDS011;5604;50.722;7.078;2022-10-24T04:22:57;621.27;;;581.60;;
11100;SDS011;5604;50.722;7.078;2022-10-24T04:25:30;638.13;;;596.83;;
11100;SDS011;5604;50.722;7.078;2022-10-24T04:27:58;660.90;;;617.37;;
11100;SDS011;5604;50.722;7.078;2022-10-24T04:30:27;650.53;;;607.63;;
11100;SDS011;5604;50.722;7.078;2022-10-24T04:32:55;628.97;;;589.70;;
11100;SDS011;5604;50.722;7.078;2022-10-24T04:35:24;581.40;;;544.83;;
11100;SDS011;5604;50.722;7.078;2022-10-24T04:37:52;625.37;;;587.93;;
11100;SDS011;5604;50.722;7.078;2022-10-24T04:40:20;597.53;;;559.80;;
11100;SDS011;5604;50.722;7.078;2022-10-24T04:42:48;576.33;;;542.57;;
11100;SDS011;5604;50.722;7.078;2022-10-24T04:45:17;601.97;;;565.90;;
11100;SDS011;5604;50.722;7.078;2022-10-24T04:47:47;589.40;;;554.83;;
11100;SDS011;5604;50.722;7.078;2022-10-24T04:50:15;583.43;;;549.87;;
11100;SDS011;5604;50.722;7.078;2022-10-24T04:52:43;597.23;;;561.13;;
11100;SDS011;5604;50.722;7.078;2022-10-24T04:55:11;592.47;;;557.63;;
11100;SDS011;5604;50.722;7.078;2022-10-24T04:57:39;578.47;;;543.73;;
11100;SDS011;5604;50.722;7.078;2022-10-24T05:00:08;610.60;;;574.33;;
11100;SDS011;5604;50.722;7.078;2022-10-24T05:02:36;591.07;;;554.97;;
11100;SDS011;5604;50.722;7.078;2022-10-24T05:05:06;621.03;;;583.03;;
11100;SDS011;5604;50.722;7.078;2022-10-24T05:07:35;625.30;;;586.97;;
11100;SDS011;5604;50.722;7.078;2022-10-24T05:10:03;620.63;;;580.50;;
11100;SDS011;5604;50.722;7.078;2022-10-24T05:12:32;630.40;;;591.17;;
11100;SDS011;5604;50.722;7.078;2022-10-24T05:15:00;621.40;;;583.43;;
11100;SDS011;5604;50.722;7.078;2022-10-24T05:17:28;651.20;;;609.13;;
11100;SDS011;5604;50.722;7.078;2022-10-24T05:19:56;650.53;;;609.73;;
11100;SDS011;5604;50.722;7.078;2022-10-24T05:22:26;644.33;;;604.30;;
11100;SDS011;5604;50.722;7.078;2022-10-24T05:24:54;687.53;;;642.60;;
11100;SDS011;5604;50.722;7.078;2022-10-24T05:27:22;646.43;;;605.63;;
11100;SDS011;5604;50.722;7.078;2022-10-24T05:29:53;637.83;;;599.00;;
11100;SDS011;5604;50.722;7.078;2022-10-24T05:32:22;631.53;;;593.00;;
11100;SDS011;5604;50.722;7.078;2022-10-24T05:34:50;614.87;;;578.67;;
11100;SDS011;5604;50.722;7.078;2022-10-24T05:37:19;614.83;;;578.33;;
11100;SDS011;5604;50.722;7.078;2022-10-24T05:39:48;653.67;;;613.70;;
11100;SDS011;5604;50.722;7.078;2022-10-24T05:42:16;616.77;;;580.70;;
11100;SDS011;5604;50.722;7.078;2022-10-24T05:44:44;559.10;;;527.13;;
11100;SDS011;5604;50.722;7.078;2022-10-24T05:47:12;584.43;;;550.90;;
11100;SDS011;5604;50.722;7.078;2022-10-24T05:49:40;617.30;;;580.13;;
11100;SDS011;5604;50.722;7.078;2022-10-24T05:52:08;591.13;;;558.10;;
11100;SDS011;5604;50.722;7.078;2022-10-24T05:54:36;623.33;;;585.80;;
11100;SDS011;5604;50.722;7.078;2022-10-24T05:57:26;618.67;;;583.03;;
11100;SDS011;5604;50.722;7.078;2022-10-24T05:59:55;604.17;;;570.30;;
11100;SDS011;5604;50.722;7.078;2022-10-24T06:02:23;583.90;;;552.03;;
11100;SDS011;5604;50.722;7.078;2022-10-24T06:04:51;559.73;;;527.93;;
11100;SDS011;5604;50.722;7.078;2022-10-24T06:07:21;613.90;;;578.97;;
11100;SDS011;5604;50.722;7.078;2022-10-24T06:09:49;636.70;;;598.53;;
11100;SDS011;5604;50.722;7.078;2022-10-24T06:12:18;580.30;;;548.27;;
11100;SDS011;5604;50.722;7.078;2022-10-24T06:14:47;563.70;;;533.20;;
11100;SDS011;5604;50.722;7.078;2022-10-24T06:17:15;595.40;;;562.87;;
11100;SDS011;5604;50.722;7.078;2022-10-24T06:19:43;607.43;;;573.87;;
11100;SDS011;5604;50.722;7.078;2022-10-24T06:22:11;534.07;;;506.63;;
11100;SDS011;5604;50.722;7.078;2022-10-24T06:24:39;587.40;;;555.37;;
11100;SDS011;5604;50.722;7.078;2022-10-24T06:27:07;557.37;;;527.80;;
11100;SDS011;5604;50.722;7.078;2022-10-24T06:29:35;590.43;;;559.07;;
11100;SDS011;5604;50.722;7.078;2022-10-24T06:32:05;569.50;;;539.57;;
11100;SDS011;5604;50.722;7.078;2022-10-24T06:34:33;577.00;;;546.43;;
11100;SDS011;5604;50.722;7.078;2022-10-24T06:37:01;556.43;;;528.27;;
11100;SDS011;5604;50.722;7.078;2022-10-24T06:39:29;577.97;;;547.83;;
11100;SDS011;5604;50.722;7.078;2022-10-24T06:41:57;598.57;;;566.47;;
11100;SDS011;5604;50.722;7.078;2022-10-24T06:44:26;576.73;;;546.40;;
11100;SDS011;5604;50.722;7.078;2022-10-24T06:46:54;580.07;;;550.57;;
11100;SDS011;5604;50.722;7.078;2022-10-24T06:49:23;594.43;;;562.17;;
11100;SDS011;5604;50.722;7.078;2022-10-24T06:51:51;608.07;;;575.83;;
11100;SDS011;5604;50.722;7.078;2022-10-24T06:54:19;586.47;;;555.83;;
11100;SDS011;5604;50.722;7.078;2022-10-24T06:56:51;595.37;;;564.63;;
11100;SDS011;5604;50.722;7.078;2022-10-24T06:59:19;591.13;;;558.97;;
11100;SDS011;5604;50.722;7.078;2022-10-24T07:01:47;563.43;;;534.63;;
11100;SDS011;5604;50.722;7.078;2022-10-24T07:04:15;643.13;;;608.07;;
11100;SDS011;5604;50.722;7.078;2022-10-24T07:06:45;585.47;;;554.23;;
11100;SDS011;5604;50.722;7.078;2022-10-24T07:09:13;560.83;;;531.07;;
11100;SDS011;5604;50.722;7.078;2022-10-24T07:11:41;614.83;;;581.27;;
11100;SDS011;5604;50.722;7.078;2022-10-24T07:14:09;581.00;;;551.63;;
11100;SDS011;5604;50.722;7.078;2022-10-24T07:16:38;577.47;;;548.30;;
11100;SDS011;5604;50.722;7.078;2022-10-24T07:19:06;575.20;;;545.67;;
11100;SDS011;5604;50.722;7.078;2022-10-24T07:21:34;582.27;;;552.10;;
11100;SDS011;5604;50.722;7.078;2022-10-24T07:24:04;573.17;;;543.70;;
11100;SDS011;5604;50.722;7.078;2022-10-24T07:26:33;542.67;;;515.57;;
11100;SDS011;5604;50.722;7.078;2022-10-24T07:29:01;573.60;;;544.63;;
11100;SDS011;5604;50.722;7.078;2022-10-24T07:31:31;567.13;;;537.93;;
11100;SDS011;5604;50.722;7.078;2022-10-24T07:34:03;585.93;;;555.97;;
11100;SDS011;5604;50.722;7.078;2022-10-24T07:36:32;567.53;;;538.43;;
11100;SDS011;5604;50.722;7.078;2022-10-24T07:39:04;603.30;;;571.90;;
11100;SDS011;5604;50.722;7.078;2022-10-24T07:41:35;571.90;;;542.17;;
11100;SDS011;5604;50.722;7.078;2022-10-24T07:44:04;559.77;;;531.67;;
11100;SDS011;5604;50.722;7.078;2022-10-24T07:46:33;557.50;;;530.53;;
11100;SDS011;5604;50.722;7.078;2022-10-24T07:49:01;568.23;;;539.43;;
11100;SDS011;5604;50.722;7.078;2022-10-24T07:51:29;590.60;;;559.67;;
11100;SDS011;5604;50.722;7.078;2022-10-24T07:53:57;566.27;;;538.03;;
11100;SDS011;5604;50.722;7.078;2022-10-24T07:56:27;573.83;;;544.00;;
11100;SDS011;5604;50.722;7.078;2022-10-24T07:58:55;551.40;;;523.53;;
11100;SDS011;5604;50.722;7.078;2022-10-24T08:01:35;541.70;;;514.03;;
11100;SDS011;5604;50.722;7.078;2022-10-24T08:04:04;520.23;;;495.47;;
11100;SDS011;5604;50.722;7.078;2022-10-24T08:06:32;554.40;;;526.93;;
11100;SDS011;5604;50.722;7.078;2022-10-24T08:09:00;539.77;;;513.10;;
11100;SDS011;5604;50.722;7.078;2022-10-24T08:11:30;580.73;;;551.20;;
11100;SDS011;5604;50.722;7.078;2022-10-24T08:13:58;554.00;;;526.17;;
11100;SDS011;5604;50.722;7.078;2022-10-24T08:16:27;524.67;;;499.57;;
11100;SDS011;5604;50.722;7.078;2022-10-24T08:18:56;567.27;;;539.43;;
11100;SDS011;5604;50.722;7.078;2022-10-24T08:21:24;557.73;;;529.90;;
11100;SDS011;5604;50.722;7.078;2022-10-24T08:23:53;580.77;;;551.17;;
11100;SDS011;5604;50.722;7.078;2022-10-24T08:26:22;568.27;;;539.23;;
11100;SDS011;5604;50.722;7.078;2022-10-24T08:28:53;580.30;;;550.67;;
11100;SDS011;5604;50.722;7.078;2022-10-24T08:31:23;554.13;;;526.87;;
11100;SDS011;5604;50.722;7.078;2022-10-24T08:33:52;522.07;;;496.47;;
11100;SDS011;5604;50.722;7.078;2022-10-24T08:36:21;539.03;;;513.40;;
11100;SDS011;5604;50.722;7.078;2022-10-24T08:38:51;541.47;;;513.97;;
11100;SDS011;5604;50.722;7.078;2022-10-24T08:41:22;526.40;;;501.73;;
11100;SDS011;5604;50.722;7.078;2022-10-24T08:43:53;576.23;;;546.47;;
11100;SDS011;5604;50.722;7.078;2022-10-24T08:46:29;532.10;;;505.93;;
11100;SDS011;5604;50.722;7.078;2022-10-24T08:49:04;544.53;;;518.87;;
11100;SDS011;5604;50.722;7.078;2022-10-24T08:51:40;544.67;;;518.63;;
11100;SDS011;5604;50.722;7.078;2022-10-24T08:54:10;537.57;;;511.90;;
11100;SDS011;5604;50.722;7.078;2022-10-24T08:56:40;525.60;;;499.87;;
11100;SDS011;5604;50.722;7.078;2022-10-24T08:59:10;542.10;;;516.00;;
11100;SDS011;5604;50.722;7.078;2022-10-24T09:01:41;523.83;;;499.00;;
11100;SDS011;5604;50.722;7.078;2022-10-24T09:04:12;527.50;;;502.60;;
11100;SDS011;5604;50.722;7.078;2022-10-24T09:06:41;556.27;;;528.03;;
11100;SDS011;5604;50.722;7.078;2022-10-24T09:09:11;541.00;;;515.00;;
11100;SDS011;5604;50.722;7.078;2022-10-24T09:11:47;530.77;;;505.20;;
11100;SDS011;5604;50.722;7.078;2022-10-24T09:14:20;547.13;;;520.30;;
11100;SDS011;5604;50.722;7.078;2022-10-24T09:16:50;523.97;;;500.00;;
11100;SDS011;5604;50.722;7.078;2022-10-24T09:19:20;523.63;;;498.17;;
11100;SDS011;5604;50.722;7.078;2022-10-24T09:21:51;538.80;;;512.80;;
11100;SDS011;5604;50.722;7.078;2022-10-24T09:24:23;502.77;;;479.53;;
11100;SDS011;5604;50.722;7.078;2022-10-24T09:26:56;522.87;;;498.67;;
11100;SDS011;5604;50.722;7.078;2022-10-24T09:29:27;504.67;;;480.93;;
11100;SDS011;5604;50.722;7.078;2022-10-24T09:31:57;500.77;;;477.10;;
11100;SDS011;5604;50.722;7.078;2022-10-24T09:34:26;504.47;;;481.50;;
11100;SDS011;5604;50.722;7.078;2022-10-24T09:36:54;521.37;;;497.03;;
11100;SDS011;5604;50.722;7.078;2022-10-24T09:39:26;502.40;;;478.97;;
11100;SDS011;5604;50.722;7.078;2022-10-24T09:41:56;515.53;;;491.77;;
11100;SDS011;5604;50.722;7.078;2022-10-24T09:44:36;510.43;;;486.53;;
11100;SDS011;5604;50.722;7.078;2022-10-24T09:47:07;531.67;;;506.23;;
11100;SDS011;5604;50.722;7.078;2022-10-24T09:49:49;537.80;;;512.93;;
11100;SDS011;5604;50.722;7.078;2022-10-24T09:52:18;486.27;;;464.03;;
11100;SDS011;5604;50.722;7.078;2022-10-24T09:55:02;511.43;;;487.47;;
11100;SDS011;5604;50.722;7.078;2022-10-24T09:57:36;514.97;;;491.47;;
11100;SDS011;5604;50.722;7.078;2022-10-24T10:00:11;495.57;;;472.60;;
11100;SDS011;5604;50.722;7.078;2022-10-24T10:02:58;515.40;;;491.30;;
11100;SDS011;5604;50.722;7.078;2022-10-24T10:05:29;509.47;;;486.20;;
11100;SDS011;5604;50.722;7.078;2022-10-24T10:08:09;499.30;;;476.23;;
11100;SDS011;5604;50.722;7.078;2022-10-24T10:10:38;474.83;;;453.23;;
11100;SDS011;5604;50.722;7.078;2022-10-24T10:13:15;482.03;;;460.37;;
11100;SDS011;5604;50.722;7.078;2022-10-24T10:15:50;491.17;;;469.20;;
11100;SDS011;5604;50.722;7.078;2022-10-24T10:18:21;511.10;;;487.17;;
11100;SDS011;5604;50.722;7.078;2022-10-24T10:21:02;497.57;;;475.13;;
11100;SDS011;5604;50.722;7.078;2022-10-24T10:23:35;523.97;;;500.03;;
11100;SDS011;5604;50.722;7.078;2022-10-24T10:26:11;487.07;;;465.33;;
11100;SDS011;5604;50.722;7.078;2022-10-24T10:28:42;514.77;;;491.83;;
11100;SDS011;5604;50.722;7.078;2022-10-24T10:31:16;489.70;;;467.50;;
11100;SDS011;5604;50.722;7.078;2022-10-24T10:33:49;476.57;;;454.83;;
11100;SDS011;5604;50.722;7.078;2022-10-24T10:36:22;543.63;;;518.20;;
11100;SDS011;5604;50.722;7.078;2022-10-24T10:38:52;523.97;;;499.17;;
11100;SDS011;5604;50.722;7.078;2022-10-24T10:41:31;519.47;;;494.93;;
11100;SDS011;5604;50.722;7.078;2022-10-24T10:44:14;523.30;;;499.83;;
11100;SDS011;5604;50.722;7.078;2022-10-24T10:46:52;539.37;;;513.83;;
11100;SDS011;5604;50.722;7.078;2022-10-24T10:49:31;509.50;;;485.63;;
11100;SDS011;5604;50.722;7.078;2022-10-24T10:52:01;549.00;;;522.97;;
11100;SDS011;5604;50.722;7.078;2022-10-24T10:54:37;511.10;;;488.27;;
11100;SDS011;5604;50.722;7.078;2022-10-24T10:57:18;561.97;;;535.10;;
11100;SDS011;5604;50.722;7.078;2022-10-24T10:59:54;541.37;;;515.57;;
11100;SDS011;5604;50.722;7.078;2022-10-24T11:02:32;515.43;;;491.97;;
11100;SDS011;5604;50.722;7.078;2022-10-24T11:05:18;549.57;;;523.30;;
11100;SDS011;5604;50.722;7.078;2022-10-24T11:07:55;523.43;;;498.03;;
11100;SDS011;5604;50.722;7.078;2022-10-24T11:10:28;488.67;;;466.50;;
11100;SDS011;5604;50.722;7.078;2022-10-24T11:13:00;531.10;;;506.27;;
11100;SDS011;5604;50.722;7.078;2022-10-24T11:15:33;509.93;;;486.63;;
11100;SDS011;5604;50.722;7.078;2022-10-24T11:18:05;505.33;;;482.50;;
11100;SDS011;5604;50.722;7.078;2022-10-24T11:20:36;508.37;;;485.00;;
11100;SDS011;5604;50.722;7.078;2022-10-24T11:23:11;489.70;;;467.73;;
11100;SDS011;5604;50.722;7.078;2022-10-24T11:25:42;494.60;;;472.87;;
11100;SDS011;5604;50.722;7.078;2022-10-24T11:28:14;513.20;;;490.13;;
11100;SDS011;5604;50.722;7.078;2022-10-24T11:30:46;528.67;;;504.10;;
11100;SDS011;5604;50.722;7.078;2022-10-24T11:33:19;533.67;;;508.63;;
11100;SDS011;5604;50.722;7.078;2022-10-24T11:35:59;510.57;;;487.50;;
11100;SDS011;5604;50.722;7.078;2022-10-24T11:38:33;513.30;;;489.67;;
11100;SDS011;5604;50.722;7.078;2022-10-24T11:44:10;524.57;;;500.60;;
11100;SDS011;5604;50.722;7.078;2022-10-24T11:46:47;545.17;;;519.20;;
11100;SDS011;5604;50.722;7.078;2022-10-24T11:49:22;517.27;;;493.77;;
11100;SDS011;5604;50.722;7.078;2022-10-24T11:51:56;533.87;;;508.60;;
11100;SDS011;5604;50.722;7.078;2022-10-24T11:54:28;519.17;;;495.23;;
11100;SDS011;5604;50.722;7.078;2022-10-24T11:57:00;515.90;;;492.63;;
11100;SDS011;5604;50.722;7.078;2022-10-24T11:59:30;528.23;;;503.43;;
11100;SDS011;5604;50.722;7.078;2022-10-24T12:02:09;498.63;;;476.00;;
11100;SDS011;5604;50.722;7.078;2022-10-24T12:04:54;500.90;;;478.27;;
11100;SDS011;5604;50.722;7.078;2022-10-24T12:07:38;506.17;;;483.20;;
11100;SDS011;5604;50.722;7.078;2022-10-24T12:10:20;469.63;;;448.43;;
11100;SDS011;5604;50.722;7.078;2022-10-24T12:15:58;480.10;;;457.77;;
11100;SDS011;5604;50.722;7.078;2022-10-24T12:18:40;481.70;;;459.57;;
11100;SDS011;5604;50.722;7.078;2022-10-24T12:21:14;489.73;;;467.73;;
11100;SDS011;5604;50.722;7.078;2022-10-24T12:23:51;507.40;;;484.13;;
11100;SDS011;5604;50.722;7.078;2022-10-24T12:26:24;457.93;;;437.00;;
11100;SDS011;5604;50.722;7.078;2022-10-24T12:28:56;515.43;;;492.03;;
11100;SDS011;5604;50.722;7.078;2022-10-24T12:31:26;488.43;;;466.30;;
11100;SDS011;5604;50.722;7.078;2022-10-24T12:37:09;498.63;;;476.10;;
11100;SDS011;5604;50.722;7.078;2022-10-24T12:39:40;517.83;;;493.40;;
11100;SDS011;5604;50.722;7.078;2022-10-24T12:42:14;495.37;;;472.73;;
11100;SDS011;5604;50.722;7.078;2022-10-24T12:44:45;510.20;;;486.20;;
11100;SDS011;5604;50.722;7.078;2022-10-24T12:47:24;506.80;;;483.30;;
11100;SDS011;5604;50.722;7.078;2022-10-24T12:49:57;510.33;;;486.90;;
11100;SDS011;5604;50.722;7.078;2022-10-24T12:55:30;522.10;;;497.93;;
11100;SDS011;5604;50.722;7.078;2022-10-24T12:58:20;485.73;;;463.30;;
11100;SDS011;5604;50.722;7.078;2022-10-24T13:00:52;509.90;;;486.47;;
11100;SDS011;5604;50.722;7.078;2022-10-24T13:03:21;493.77;;;471.47;;
11100;SDS011;5604;50.722;7.078;2022-10-24T13:06:01;499.57;;;476.40;;
11100;SDS011;5604;50.722;7.078;2022-10-24T13:08:39;532.70;;;507.10;;
11100;SDS011;5604;50.722;7.078;2022-10-24T13:11:21;532.67;;;507.87;;
11100;SDS011;5604;50.722;7.078;2022-10-24T13:14:01;528.10;;;503.17;;
11100;SDS011;5604;50.722;7.078;2022-10-24T13:16:50;511.27;;;487.03;;
11100;SDS011;5604;50.722;7.078;2022-10-24T13:19:24;541.43;;;515.30;;
11100;SDS011;5604;50.722;7.078;2022-10-24T13:21:53;542.43;;;517.33;;
11100;SDS011;5604;50.722;7.078;2022-10-24T13:24:25;557.03;;;530.27;;
11100;SDS011;5604;50.722;7.078;2022-10-24T13:30:03;543.33;;;517.57;;
11100;SDS011;5604;50.722;7.078;2022-10-24T13:36:15;531.20;;;506.50;;
11100;SDS011;5604;50.722;7.078;2022-10-24T13:38:50;519.80;;;495.77;;
11100;SDS011;5604;50.722;7.078;2022-10-24T13:41:24;518.60;;;495.23;;
11100;SDS011;5604;50.722;7.078;2022-10-24T13:43:55;511.07;;;487.37;;
11100;SDS011;5604;50.722;7.078;2022-10-24T13:46:29;494.23;;;471.40;;
11100;SDS011;5604;50.722;7.078;2022-10-24T13:48:59;551.40;;;525.43;;
11100;SDS011;5604;50.722;7.078;2022-10-24T13:51:31;483.63;;;461.90;;
11100;SDS011;5604;50.722;7.078;2022-10-24T13:54:09;479.47;;;457.60;;
11100;SDS011;5604;50.722;7.078;2022-10-24T13:56:44;521.67;;;497.87;;
11100;SDS011;5604;50.722;7.078;2022-10-24T14:02:12;523.03;;;499.27;;
11100;SDS011;5604;50.722;7.078;2022-10-24T14:04:44;504.47;;;481.03;;
11100;SDS011;5604;50.722;7.078;2022-10-24T14:07:14;556.83;;;530.40;;
11100;SDS011;5604;50.722;7.078;2022-10-24T14:09:51;515.17;;;491.30;;
11100;SDS011;5604;50.722;7.078;2022-10-24T14:12:23;517.80;;;493.33;;
11100;SDS011;5604;50.722;7.078;2022-10-24T14:14:53;542.70;;;517.33;;
11100;SDS011;5604;50.722;7.078;2022-10-24T14:17:26;537.47;;;512.43;;
11100;SDS011;5604;50.722;7.078;2022-10-24T14:19:57;533.77;;;508.83;;
11100;SDS011;5604;50.722;7.078;2022-10-24T14:22:28;514.33;;;490.03;;
11100;SDS011;5604;50.722;7.078;2022-10-24T14:24:57;544.93;;;518.67;;
11100;SDS011;5604;50.722;7.078;2022-10-24T14:27:26;523.30;;;498.27;;
11100;SDS011;5604;50.722;7.078;2022-10-24T14:29:57;560.40;;;534.27;;
11100;SDS011;5604;50.722;7.078;2022-10-24T14:32:27;547.27;;;521.30;;
11100;SDS011;5604;50.722;7.078;2022-10-24T14:34:56;549.17;;;523.07;;
11100;SDS011;5604;50.722;7.078;2022-10-24T14:37:28;526.53;;;501.57;;
11100;SDS011;5604;50.722;7.078;2022-10-24T14:39:59;586.87;;;558.13;;
11100;SDS011;5604;50.722;7.078;2022-10-24T14:42:29;551.70;;;525.77;;
11100;SDS011;5604;50.722;7.078;2022-10-24T14:44:57;560.90;;;533.53;;
11100;SDS011;5604;50.722;7.078;2022-10-24T14:47:27;540.60;;;515.43;;
11100;SDS011;5604;50.722;7.078;2022-10-24T14:49:59;557.77;;;531.90;;
11100;SDS011;5604;50.722;7.078;2022-10-24T14:52:28;568.13;;;541.33;;
11100;SDS011;5604;50.722;7.078;2022-10-24T14:55:03;548.37;;;522.33;;
11100;SDS011;5604;50.722;7.078;2022-10-24T14:57:34;552.17;;;525.77;;
11100;SDS011;5604;50.722;7.078;2022-10-24T15:00:04;612.67;;;582.97;;